Time;durP1;ratioP1;P1;durP2;ratioP2;P2;SDS_P1;SDS_P2;PMS_P1;PMS_P2;Temp;Humidity;BMP_temperature;BMP_pressure;BME280_temperature;BME280_humidity;BME280_pressure;Samples;Min_cycle;Max_cycle;Signal;HPM_P1;HPM_P2
2023/04/08 00:00:16;;;;;;;10.30;8.60;;;5.30;99.90;;;;;;5099055;28;20044;-56
2023/04/08 00:02:42;;;;;;;15.15;7.68;;;5.30;99.90;;;;;;5095726;28;20081;-54
2023/04/08 00:05:08;;;;;;;10.02;7.57;;;5.20;99.90;;;;;;5111229;28;20051;-52
2023/04/08 00:07:34;;;;;;;9.43;8.23;;;5.20;99.90;;;;;;5109145;28;20031;-55
2023/04/08 00:09:59;;;;;;;10.35;8.00;;;5.20;99.90;;;;;;5109129;28;20062;-55
2023/04/08 00:12:25;;;;;;;10.38;7.65;;;5.20;99.90;;;;;;5109087;28;20039;-54
2023/04/08 00:14:51;;;;;;;10.87;8.37;;;5.20;99.90;;;;;;5104600;28;20059;-54
2023/04/08 00:17:16;;;;;;;11.18;8.02;;;5.10;99.90;;;;;;5091650;28;20519;-54
2023/04/08 00:19:43;;;;;;;7.30;6.60;;;5.10;99.90;;;;;;5089557;28;20040;-56
2023/04/08 00:22:09;;;;;;;;;;;5.00;99.90;;;;;;5104911;28;20437;-54
2023/04/08 00:24:35;;;;;;;10.00;7.25;;;5.00;99.90;;;;;;5110291;28;19967;-54
2023/04/08 00:27:01;;;;;;;8.27;7.47;;;5.00;99.90;;;;;;5109583;28;20031;-54
2023/04/08 00:29:27;;;;;;;;;;;4.90;99.90;;;;;;5110059;28;20044;-52
2023/04/08 00:31:53;;;;;;;7.40;6.68;;;4.90;99.90;;;;;;5105889;28;20266;-55
2023/04/08 00:34:19;;;;;;;9.20;6.80;;;4.80;99.90;;;;;;5092423;28;20035;-56
2023/04/08 00:36:46;;;;;;;8.23;6.78;;;4.80;99.90;;;;;;5091778;28;20047;-55
2023/04/08 00:39:12;;;;;;;9.50;7.28;;;4.80;99.90;;;;;;5097748;28;20067;-55
2023/04/08 00:41:38;;;;;;;9.93;7.78;;;4.70;99.90;;;;;;5090476;28;20517;-55
2023/04/08 00:44:03;;;;;;;8.57;6.50;;;4.70;99.90;;;;;;5090038;28;20063;-54
2023/04/08 00:46:32;;;;;;;9.97;7.77;;;4.60;99.90;;;;;;5091484;28;20032;-54
2023/04/08 00:48:58;;;;;;;12.48;7.10;;;4.60;99.90;;;;;;5088959;28;20052;-55
2023/04/08 00:51:23;;;;;;;9.98;7.50;;;4.60;99.90;;;;;;5092750;28;20445;-55
2023/04/08 00:53:49;;;;;;;14.63;8.63;;;4.60;99.90;;;;;;5110001;28;20031;-52
2023/04/08 00:56:15;;;;;;;12.43;7.97;;;4.60;99.90;;;;;;5109074;28;20028;-54
2023/04/08 00:58:40;;;;;;;16.13;8.17;;;4.60;99.90;;;;;;5089065;28;20278;-56
2023/04/08 01:01:12;;;;;;;8.67;7.23;;;4.60;99.90;;;;;;5090559;28;20043;-54
2023/04/08 01:03:43;;;;;;;9.57;8.18;;;4.60;99.90;;;;;;5106598;28;20039;-54
2023/04/08 01:06:17;;;;;;;10.35;8.10;;;4.60;99.90;;;;;;5090329;28;20048;-55
2023/04/08 01:08:44;;;;;;;10.98;8.05;;;4.60;99.90;;;;;;5088679;28;20047;-56
2023/04/08 01:11:12;;;;;;;15.73;8.43;;;4.50;99.90;;;;;;5089690;28;20532;-52
2023/04/08 01:13:41;;;;;;;8.35;6.95;;;4.50;99.90;;;;;;5108732;28;20032;-54
2023/04/08 01:16:14;;;;;;;11.77;7.63;;;4.50;99.90;;;;;;5110133;28;20577;-54
2023/04/08 01:18:42;;;;;;;8.50;7.40;;;4.50;99.90;;;;;;5107057;28;20035;-54
2023/04/08 01:21:10;;;;;;;7.88;7.07;;;4.40;99.90;;;;;;5095885;28;20669;-52
2023/04/08 01:23:53;;;;;;;9.40;6.65;;;4.40;99.90;;;;;;5105896;28;20035;-53
2023/04/08 01:26:24;;;;;;;8.35;7.30;;;4.40;99.90;;;;;;5110227;28;20114;-54
2023/04/08 01:28:55;;;;;;;10.60;8.95;;;4.40;99.90;;;;;;5090391;28;20198;-53
2023/04/08 01:31:22;;;;;;;12.98;7.47;;;4.30;99.90;;;;;;5089895;28;20032;-55
2023/04/08 01:33:49;;;;;;;10.52;8.38;;;4.30;99.90;;;;;;5101396;28;20488;-56
2023/04/08 01:36:16;;;;;;;8.40;7.50;;;4.20;99.90;;;;;;5090088;28;20463;-54
2023/04/08 01:38:42;;;;;;;;;;;4.20;99.90;;;;;;5094255;28;20036;-59
2023/04/08 01:41:10;;;;;;;12.38;8.55;;;4.20;99.90;;;;;;5094069;28;19942;-55
2023/04/08 01:43:38;;;;;;;11.52;8.85;;;4.10;99.90;;;;;;5107729;28;20520;-56
2023/04/08 01:46:05;;;;;;;10.48;8.40;;;4.20;99.90;;;;;;5112320;28;20047;-55
2023/04/08 01:48:31;;;;;;;10.82;8.98;;;4.10;99.90;;;;;;5100438;28;20106;-55
2023/04/08 01:50:57;;;;;;;11.82;8.77;;;4.10;99.90;;;;;;5105857;28;20039;-56
2023/04/08 01:53:22;;;;;;;10.60;8.65;;;4.10;99.90;;;;;;5101715;28;20532;-58
2023/04/08 01:55:54;;;;;;;9.87;8.87;;;4.10;99.90;;;;;;5093778;28;20389;-54
2023/04/08 01:58:21;;;;;;;12.32;10.23;;;4.00;99.90;;;;;;5101127;28;20280;-56
2023/04/08 02:00:48;;;;;;;12.80;10.45;;;4.10;99.90;;;;;;5111499;28;20088;-56
2023/04/08 02:03:17;;;;;;;13.82;10.43;;;4.10;99.90;;;;;;5105149;28;20084;-55
2023/04/08 02:05:42;;;;;;;14.27;10.93;;;4.10;99.90;;;;;;5093645;28;20044;-57
2023/04/08 02:08:08;;;;;;;12.87;10.63;;;4.10;99.90;;;;;;5092673;28;20473;-55
2023/04/08 02:10:34;;;;;;;15.67;11.10;;;4.10;99.90;;;;;;5108185;28;20120;-56
2023/04/08 02:13:01;;;;;;;12.73;10.03;;;4.10;99.90;;;;;;5106355;28;20396;-57
2023/04/08 02:15:28;;;;;;;13.80;10.23;;;4.10;99.90;;;;;;5099626;28;20401;-54
2023/04/08 02:18:06;;;;;;;15.82;11.43;;;4.10;99.90;;;;;;5096025;28;20381;-58
2023/04/08 02:20:36;;;;;;;13.20;9.90;;;4.10;99.90;;;;;;5099118;28;20036;-57
2023/04/08 02:23:21;;;;;;;12.90;11.05;;;4.00;99.90;;;;;;5097318;28;20072;-56
2023/04/08 02:25:48;;;;;;;17.38;11.65;;;4.00;99.90;;;;;;5100879;28;20040;-55
2023/04/08 02:28:16;;;;;;;14.63;11.05;;;3.90;99.90;;;;;;5104853;28;20350;-57
2023/04/08 02:30:43;;;;;;;14.02;10.98;;;3.90;99.90;;;;;;5112236;28;20043;-57
2023/04/08 02:33:10;;;;;;;15.07;11.32;;;3.90;99.90;;;;;;5108687;28;20103;-58
2023/04/08 02:35:37;;;;;;;13.93;11.88;;;3.90;99.90;;;;;;5091987;28;20048;-57
2023/04/08 02:38:03;;;;;;;15.93;11.63;;;3.90;99.90;;;;;;5104643;28;20168;-56
2023/04/08 02:40:31;;;;;;;13.60;11.73;;;3.80;99.90;;;;;;5092291;28;20123;-54
2023/04/08 02:42:57;;;;;;;12.90;11.48;;;3.80;99.90;;;;;;5092034;28;20082;-58
2023/04/08 02:45:27;;;;;;;;;;;3.80;99.90;;;;;;5113276;28;20035;-56
2023/04/08 02:47:52;;;;;;;11.82;9.95;;;3.80;99.90;;;;;;5109989;28;20394;-57
2023/04/08 02:50:18;;;;;;;19.93;12.07;;;3.80;99.90;;;;;;5091673;28;20040;-56
2023/04/08 02:52:43;;;;;;;15.90;11.63;;;3.80;99.90;;;;;;5106782;28;20164;-57
2023/04/08 02:55:10;;;;;;;14.43;12.73;;;3.70;99.90;;;;;;5101983;27;20054;-57
2023/04/08 02:57:36;;;;;;;12.38;10.65;;;3.70;99.90;;;;;;5111580;27;20273;-54
2023/04/08 03:00:03;;;;;;;14.20;11.75;;;3.70;99.90;;;;;;5095826;28;20032;-56
2023/04/08 03:02:29;;;;;;;16.10;11.93;;;3.70;99.90;;;;;;5092011;28;20106;-57
2023/04/08 03:04:55;;;;;;;16.23;12.32;;;3.70;99.90;;;;;;5105995;28;20512;-56
2023/04/08 03:07:20;;;;;;;17.67;11.50;;;3.70;99.90;;;;;;5100562;28;20123;-56
2023/04/08 03:09:46;;;;;;;15.17;12.23;;;3.60;99.90;;;;;;5092217;28;20469;-55
2023/04/08 03:12:11;;;;;;;16.87;12.13;;;3.60;99.90;;;;;;5091944;28;20035;-56
2023/04/08 03:14:37;;;;;;;16.57;12.10;;;3.50;99.90;;;;;;5102846;28;20047;-57
2023/04/08 03:17:02;;;;;;;13.07;11.33;;;3.50;99.90;;;;;;5103385;28;20476;-57
2023/04/08 03:19:28;;;;;;;17.80;12.37;;;3.50;99.90;;;;;;5091009;28;20059;-56
2023/04/08 03:21:54;;;;;;;18.13;12.43;;;3.50;99.90;;;;;;5089968;28;20044;-57
2023/04/08 03:24:19;;;;;;;16.37;12.93;;;3.40;99.90;;;;;;5098456;28;20043;-57
2023/04/08 03:26:45;;;;;;;14.60;11.03;;;3.40;99.90;;;;;;5112361;28;20397;-57
2023/04/08 03:29:10;;;;;;;16.10;13.03;;;3.40;99.90;;;;;;5105936;28;20054;-56
2023/04/08 03:31:36;;;;;;;14.57;12.70;;;3.40;99.90;;;;;;5092557;28;20046;-56
2023/04/08 03:34:01;;;;;;;17.30;13.50;;;3.30;99.90;;;;;;5095153;28;20030;-57
2023/04/08 03:36:27;;;;;;;18.40;13.33;;;3.30;99.90;;;;;;5111856;28;20027;-57
2023/04/08 03:38:52;;;;;;;14.80;12.77;;;3.30;99.90;;;;;;5109312;28;20276;-58
2023/04/08 03:41:18;;;;;;;18.80;15.00;;;3.30;99.90;;;;;;5091338;28;20071;-57
2023/04/08 03:43:44;;;;;;;17.83;14.40;;;3.30;99.90;;;;;;5107958;28;20032;-56
2023/04/08 03:46:10;;;;;;;22.38;14.75;;;3.30;99.90;;;;;;5090793;28;20070;-56
2023/04/08 03:48:35;;;;;;;22.17;14.97;;;3.30;99.90;;;;;;5090522;28;20032;-55
2023/04/08 03:51:04;;;;;;;17.93;14.77;;;3.30;99.90;;;;;;5108921;28;20050;-54
2023/04/08 03:53:30;;;;;;;17.10;14.73;;;3.40;99.90;;;;;;5111188;28;20092;-56
2023/04/08 03:55:56;;;;;;;20.33;15.23;;;3.30;99.90;;;;;;5094687;28;20467;-55
2023/04/08 03:58:22;;;;;;;18.77;15.13;;;3.40;99.90;;;;;;5090066;28;20177;-56
2023/04/08 04:00:47;;;;;;;19.50;15.68;;;3.40;99.90;;;;;;5104944;28;20065;-55
2023/04/08 04:03:13;;;;;;;20.67;15.63;;;3.30;99.90;;;;;;5110960;28;20039;-56
2023/04/08 04:05:39;;;;;;;20.57;15.53;;;3.40;99.90;;;;;;5098201;28;20047;-54
2023/04/08 04:08:05;;;;;;;24.88;16.92;;;3.40;99.90;;;;;;5089930;28;20644;-57
2023/04/08 04:10:30;;;;;;;17.42;14.57;;;3.40;99.90;;;;;;5090546;28;20046;-56
2023/04/08 04:12:56;;;;;;;20.73;15.97;;;3.40;99.90;;;;;;5091949;28;20031;-56
2023/04/08 04:15:22;;;;;;;19.67;15.13;;;3.40;99.90;;;;;;5099563;28;20039;-56
2023/04/08 04:17:49;;;;;;;22.13;17.20;;;3.50;99.90;;;;;;5109071;28;20089;-55
2023/04/08 04:20:15;;;;;;;24.27;16.98;;;3.50;99.90;;;;;;5090396;28;20123;-56
2023/04/08 04:22:41;;;;;;;23.50;17.00;;;3.50;99.90;;;;;;5089251;28;20036;-55
2023/04/08 04:25:07;;;;;;;21.13;16.60;;;3.50;99.90;;;;;;5109233;28;20122;-56
2023/04/08 04:27:34;;;;;;;20.92;16.45;;;3.60;99.90;;;;;;5101288;28;20572;-57
2023/04/08 04:29:59;;;;;;;22.98;17.13;;;3.60;99.90;;;;;;5108036;28;20043;-58
2023/04/08 04:32:25;;;;;;;22.25;17.23;;;3.60;99.90;;;;;;5106954;28;20035;-55
2023/04/08 04:34:51;;;;;;;24.47;18.13;;;3.60;99.90;;;;;;5109330;28;20123;-58
2023/04/08 04:37:17;;;;;;;23.13;17.60;;;3.60;99.90;;;;;;5110533;28;20486;-57
2023/04/08 04:39:43;;;;;;;24.10;19.55;;;3.70;99.90;;;;;;5095222;28;20115;-55
2023/04/08 04:42:08;;;;;;;22.42;17.40;;;3.70;99.90;;;;;;5097194;28;20461;-56
2023/04/08 04:44:34;;;;;;;25.20;18.30;;;3.70;99.90;;;;;;5098574;28;20044;-54
2023/04/08 04:47:01;;;;;;;23.88;18.08;;;3.70;99.90;;;;;;5090067;28;20447;-55
2023/04/08 04:49:26;;;;;;;;;;;3.70;99.90;;;;;;5099008;28;20531;-54
2023/04/08 04:51:52;;;;;;;27.15;18.88;;;3.80;99.90;;;;;;5108824;28;19915;-57
2023/04/08 04:54:17;;;;;;;25.33;18.13;;;3.80;99.90;;;;;;5101763;28;20047;-59
2023/04/08 04:56:43;;;;;;;30.00;17.77;;;3.80;99.90;;;;;;5090045;28;20131;-56
2023/04/08 04:59:08;;;;;;;21.07;17.03;;;3.80;99.90;;;;;;5094531;28;20046;-57
2023/04/08 05:01:34;;;;;;;25.93;18.43;;;3.80;99.90;;;;;;5110506;28;20500;-55
2023/04/08 05:04:00;;;;;;;25.25;19.48;;;3.80;99.90;;;;;;5096192;28;20028;-56
2023/04/08 05:06:26;;;;;;;27.53;20.33;;;3.90;99.90;;;;;;5106443;28;20078;-56
2023/04/08 05:08:52;;;;;;;27.60;21.00;;;3.90;99.90;;;;;;5090970;28;20189;-57
2023/04/08 05:11:18;;;;;;;26.98;20.08;;;3.90;99.90;;;;;;5109381;28;20115;-57
2023/04/08 05:13:44;;;;;;;26.30;20.80;;;4.00;99.90;;;;;;5108801;28;20042;-54
2023/04/08 05:16:10;;;;;;;26.42;20.65;;;4.00;99.90;;;;;;5089784;28;20391;-54
2023/04/08 05:18:35;;;;;;;27.75;21.92;;;4.10;99.90;;;;;;5099221;28;20118;-58
2023/04/08 05:21:01;;;;;;;30.93;22.53;;;4.10;99.90;;;;;;5088471;28;20150;-57
2023/04/08 05:23:27;;;;;;;29.17;23.23;;;4.20;99.90;;;;;;5089644;28;20381;-56
2023/04/08 05:25:53;;;;;;;30.53;20.97;;;4.20;99.90;;;;;;5107008;28;20492;-57
2023/04/08 05:28:18;;;;;;;33.53;24.00;;;4.20;99.90;;;;;;5107446;28;20401;-57
2023/04/08 05:30:51;;;;;;;33.10;23.63;;;4.30;99.90;;;;;;5093413;28;20117;-58
2023/04/08 05:33:17;;;;;;;29.38;22.60;;;4.40;99.90;;;;;;5089968;28;20166;-55
2023/04/08 05:35:43;;;;;;;27.05;20.90;;;4.40;99.90;;;;;;5097376;28;20500;-57
2023/04/08 05:38:09;;;;;;;32.72;21.48;;;4.40;99.90;;;;;;5093430;28;20111;-57
2023/04/08 05:40:35;;;;;;;32.17;21.37;;;4.50;99.90;;;;;;5103641;28;20126;-55
2023/04/08 05:43:00;;;;;;;27.77;22.08;;;4.50;99.90;;;;;;5107143;28;20488;-55
2023/04/08 05:45:27;;;;;;;30.70;21.50;;;4.50;99.90;;;;;;5103198;28;20504;-55
2023/04/08 05:47:53;;;;;;;29.60;22.65;;;4.50;99.90;;;;;;5088246;28;20032;-57
2023/04/08 05:50:19;;;;;;;28.50;22.80;;;4.50;99.90;;;;;;5097873;28;20042;-56
2023/04/08 05:52:45;;;;;;;26.88;20.75;;;4.50;99.90;;;;;;5108446;28;20028;-54
2023/04/08 05:55:11;;;;;;;29.02;21.92;;;4.50;99.90;;;;;;5091460;28;20040;-54
2023/04/08 05:57:37;;;;;;;29.65;21.40;;;4.60;99.90;;;;;;5089376;28;20066;-55
2023/04/08 06:00:05;;;;;;;32.97;23.27;;;4.60;99.90;;;;;;5089035;28;20493;-55
2023/04/08 06:02:31;;;;;;;31.77;23.83;;;4.60;99.90;;;;;;5101115;28;20063;-54
2023/04/08 06:04:57;;;;;;;31.17;23.77;;;4.60;99.90;;;;;;5094063;28;20063;-54
2023/04/08 06:07:22;;;;;;;33.30;24.00;;;4.70;99.90;;;;;;5095068;28;20077;-55
2023/04/08 06:09:48;;;;;;;32.90;24.60;;;4.70;99.90;;;;;;5090565;28;20063;-57
2023/04/08 06:12:14;;;;;;;37.07;25.87;;;4.80;99.90;;;;;;5099732;28;20036;-57
2023/04/08 06:14:39;;;;;;;33.75;23.63;;;4.80;99.90;;;;;;5104452;28;20034;-54
2023/04/08 06:17:05;;;;;;;34.00;24.70;;;4.90;99.90;;;;;;5098809;28;20520;-57
2023/04/08 06:19:31;;;;;;;36.13;25.53;;;4.90;99.90;;;;;;5087783;28;20085;-57
2023/04/08 06:21:57;;;;;;;36.53;24.70;;;5.00;99.90;;;;;;5100521;28;20540;-56
2023/04/08 06:24:28;;;;;;;38.78;26.33;;;5.00;99.90;;;;;;5102919;28;20044;-57
2023/04/08 06:26:54;;;;;;;31.33;24.25;;;5.10;99.90;;;;;;5093001;28;20429;-54
2023/04/08 06:29:20;;;;;;;34.65;24.65;;;5.20;99.90;;;;;;5091543;28;20115;-58
2023/04/08 06:31:46;;;;;;;;;;;5.20;99.90;;;;;;5097787;28;20115;-56
2023/04/08 06:34:12;;;;;;;34.65;23.60;;;5.30;99.90;;;;;;5108408;28;20014;-57
2023/04/08 06:36:37;;;;;;;35.13;25.03;;;5.40;99.90;;;;;;5112291;28;20468;-58
2023/04/08 06:39:03;;;;;;;31.95;25.17;;;5.50;99.90;;;;;;5111489;28;20035;-58
2023/04/08 06:41:29;;;;;;;37.17;26.87;;;5.60;99.90;;;;;;5111022;28;20043;-56
2023/04/08 06:43:55;;;;;;;36.10;26.25;;;5.70;99.90;;;;;;5110821;28;20055;-57
2023/04/08 06:46:21;;;;;;;35.85;25.00;;;5.80;99.90;;;;;;5097185;28;20031;-57
2023/04/08 06:48:46;;;;;;;33.97;25.53;;;6.00;99.90;;;;;;5102011;28;20532;-58
2023/04/08 06:51:12;;;;;;;37.53;27.63;;;6.20;99.90;;;;;;5103608;28;20401;-57
2023/04/08 06:53:37;;;;;;;37.33;26.23;;;6.40;99.90;;;;;;5102124;28;20059;-57
2023/04/08 06:56:03;;;;;;;31.00;23.20;;;6.50;99.90;;;;;;5100171;28;20119;-53
2023/04/08 06:58:29;;;;;;;36.78;25.65;;;6.60;99.90;;;;;;5103736;28;20048;-54
2023/04/08 07:00:55;;;;;;;38.77;25.70;;;6.70;99.90;;;;;;5101957;28;20032;-56
2023/04/08 07:03:21;;;;;;;30.73;23.13;;;6.80;99.90;;;;;;5094593;28;20889;-54
2023/04/08 07:05:47;;;;;;;40.70;27.77;;;7.00;99.90;;;;;;5092412;28;20032;-52
2023/04/08 07:08:12;;;;;;;32.40;24.23;;;7.20;99.90;;;;;;5091757;28;20039;-52
2023/04/08 07:10:38;;;;;;;39.60;25.43;;;7.30;99.90;;;;;;5102425;28;20043;-55
2023/04/08 07:13:03;;;;;;;43.17;29.53;;;7.50;99.90;;;;;;5092638;28;20429;-56
2023/04/08 07:15:29;;;;;;;41.22;26.98;;;7.60;99.90;;;;;;5091888;28;20323;-54
2023/04/08 07:17:55;;;;;;;36.92;26.48;;;7.80;99.90;;;;;;5101980;28;20222;-54
2023/04/08 07:20:22;;;;;;;40.33;29.05;;;7.90;99.90;;;;;;5108772;28;20051;-57
2023/04/08 07:22:48;;;;;;;;;;;8.00;99.90;;;;;;5091019;28;20588;-57
2023/04/08 07:25:13;;;;;;;41.85;29.02;;;8.20;99.90;;;;;;5091099;28;20069;-53
2023/04/08 07:27:39;;;;;;;43.78;29.17;;;8.30;99.90;;;;;;5092405;28;20062;-53
2023/04/08 07:30:06;;;;;;;40.83;28.13;;;8.40;99.90;;;;;;5091917;28;20489;-57
2023/04/08 07:32:32;;;;;;;46.90;29.75;;;8.50;99.90;;;;;;5093050;28;20063;-53
2023/04/08 07:34:59;;;;;;;40.20;29.23;;;8.60;99.90;;;;;;5090956;28;20040;-53
2023/04/08 07:37:25;;;;;;;42.55;28.27;;;8.70;99.90;;;;;;5100434;28;20042;-56
2023/04/08 07:39:50;;;;;;;42.88;27.60;;;8.80;99.90;;;;;;5099722;28;20027;-54
2023/04/08 07:42:17;;;;;;;38.40;28.37;;;8.90;99.90;;;;;;5101802;28;20046;-53
2023/04/08 07:44:43;;;;;;;;;;;9.00;99.90;;;;;;5099751;28;20039;-56
2023/04/08 07:47:08;;;;;;;36.33;24.88;;;9.00;99.90;;;;;;5095679;28;20212;-53
2023/04/08 07:49:34;;;;;;;34.60;24.87;;;9.10;99.90;;;;;;5094790;28;20032;-54
2023/04/08 07:52:00;;;;;;;34.10;23.53;;;9.20;99.90;;;;;;5092417;28;20282;-56
2023/04/08 07:54:25;;;;;;;32.03;23.58;;;9.20;99.90;;;;;;5091689;28;20086;-55
2023/04/08 07:56:51;;;;;;;34.50;25.67;;;9.20;99.90;;;;;;5098361;28;20568;-55
2023/04/08 07:59:16;;;;;;;32.43;22.67;;;9.30;99.90;;;;;;5105212;28;20044;-56
2023/04/08 08:01:42;;;;;;;31.30;22.73;;;9.30;99.90;;;;;;5091359;28;20571;-57
2023/04/08 08:04:07;;;;;;;28.33;20.70;;;9.40;99.90;;;;;;5091852;28;20048;-54
2023/04/08 08:06:33;;;;;;;29.20;20.70;;;9.30;99.90;;;;;;5096029;28;20031;-55
2023/04/08 08:08:59;;;;;;;29.73;21.40;;;9.30;99.90;;;;;;5108696;28;20036;-57
2023/04/08 08:11:26;;;;;;;29.38;21.63;;;9.30;99.90;;;;;;5091132;28;20197;-54
2023/04/08 08:13:52;;;;;;;29.98;20.63;;;9.40;99.90;;;;;;5089590;28;20043;-55
2023/04/08 08:16:18;;;;;;;30.27;21.73;;;9.50;99.90;;;;;;5092031;28;20089;-57
2023/04/08 08:18:44;;;;;;;28.98;21.20;;;9.70;99.90;;;;;;5089502;28;20089;-55
2023/04/08 08:21:09;;;;;;;26.88;18.75;;;9.90;99.90;;;;;;5094980;28;20027;-55
2023/04/08 08:23:36;;;;;;;26.10;19.77;;;10.00;99.90;;;;;;5110414;28;20122;-53
2023/04/08 08:26:11;;;;;;;27.13;19.63;;;10.20;99.90;;;;;;5107524;28;20097;-55
2023/04/08 08:28:37;;;;;;;24.08;19.02;;;10.40;99.90;;;;;;5089613;28;20508;-53
2023/04/08 08:31:04;;;;;;;23.73;17.25;;;10.60;99.90;;;;;;5091273;28;20070;-57
2023/04/08 08:33:31;;;;;;;23.88;17.40;;;10.70;99.90;;;;;;5099153;28;20076;-54
2023/04/08 08:35:59;;;;;;;23.30;16.88;;;10.80;99.90;;;;;;5096666;28;20036;-57
2023/04/08 08:38:25;;;;;;;19.45;15.45;;;10.80;99.90;;;;;;5106054;28;20521;-53
2023/04/08 08:40:55;;;;;;;17.60;14.77;;;10.80;99.90;;;;;;5098897;28;20565;-55
2023/04/08 08:43:21;;;;;;;19.15;16.40;;;10.70;99.90;;;;;;5092829;28;20044;-54
2023/04/08 08:45:47;;;;;;;17.50;14.38;;;10.70;99.90;;;;;;5098651;28;20072;-53
2023/04/08 08:48:13;;;;;;;18.13;15.32;;;10.70;99.90;;;;;;5092333;28;20097;-55
2023/04/08 08:50:39;;;;;;;20.20;16.52;;;10.70;99.90;;;;;;5089447;28;20189;-57
2023/04/08 08:53:05;;;;;;;21.42;15.45;;;10.80;99.90;;;;;;5094041;28;20024;-55
2023/04/08 08:55:34;;;;;;;23.55;16.23;;;10.90;99.90;;;;;;5104608;28;20050;-57
2023/04/08 08:58:01;;;;;;;18.33;14.40;;;11.00;99.90;;;;;;5090307;28;20043;-54
2023/04/08 09:00:43;;;;;;;17.13;15.38;;;11.20;99.90;;;;;;5090670;28;20146;-56
2023/04/08 09:03:22;;;;;;;19.00;15.43;;;11.30;99.90;;;;;;5104671;28;20046;-55
2023/04/08 09:06:05;;;;;;;18.75;14.48;;;11.40;99.90;;;;;;5110257;28;20098;-55
2023/04/08 09:08:36;;;;;;;19.70;14.45;;;11.50;99.90;;;;;;5106732;28;20130;-56
2023/04/08 09:11:22;;;;;;;62.63;17.60;;;11.60;99.90;;;;;;5110195;28;20044;-58
2023/04/08 09:13:48;;;;;;;27.60;14.68;;;11.60;99.90;;;;;;5091143;28;20476;-55
2023/04/08 09:16:18;;;;;;;70.88;17.40;;;11.50;99.90;;;;;;5090442;28;20040;-57
2023/04/08 09:18:46;;;;;;;36.33;15.27;;;11.40;99.90;;;;;;5091145;28;20040;-56
2023/04/08 09:21:16;;;;;;;18.98;14.88;;;11.40;99.90;;;;;;5102863;28;20071;-56
2023/04/08 09:23:50;;;;;;;20.90;15.23;;;11.30;99.90;;;;;;5107087;28;20039;-53
2023/04/08 09:26:16;;;;;;;16.75;13.43;;;11.20;99.90;;;;;;5109911;28;20052;-54
2023/04/08 09:28:56;;;;;;;18.45;13.27;;;11.30;99.90;;;;;;5090905;28;20063;-57
2023/04/08 09:31:23;;;;;;;16.40;14.00;;;11.40;99.90;;;;;;5090142;28;20031;-59
2023/04/08 09:33:50;;;;;;;17.85;14.32;;;11.50;99.90;;;;;;5105274;28;20446;-54
2023/04/08 09:36:16;;;;;;;17.85;13.60;;;11.70;99.90;;;;;;5108249;28;20454;-52
2023/04/08 09:38:43;;;;;;;18.83;12.52;;;11.80;99.90;;;;;;5095598;28;20075;-54
2023/04/08 09:41:16;;;;;;;12.75;10.90;;;11.90;99.90;;;;;;5101942;28;20047;-54
2023/04/08 09:43:55;;;;;;;13.23;11.38;;;12.10;99.90;;;;;;5100201;28;20062;-54
2023/04/08 09:46:35;;;;;;;13.35;12.02;;;12.20;99.90;;;;;;5093803;28;20415;-54
2023/04/08 09:49:15;;;;;;;14.73;12.35;;;12.30;99.90;;;;;;5103038;28;20045;-56
2023/04/08 09:51:43;;;;;;;14.05;11.48;;;12.40;99.90;;;;;;5093682;28;20170;-54
2023/04/08 09:54:17;;;;;;;13.20;11.23;;;12.40;99.90;;;;;;5106998;28;20067;-55
2023/04/08 09:57:04;;;;;;;13.80;12.35;;;12.50;99.90;;;;;;5107601;28;20043;-55
2023/04/08 09:59:33;;;;;;;14.70;13.13;;;12.60;99.90;;;;;;5110339;28;20036;-54
2023/04/08 10:02:04;;;;;;;13.65;12.25;;;12.60;99.90;;;;;;5112544;28;20080;-54
2023/04/08 10:04:34;;;;;;;13.30;11.98;;;12.60;99.90;;;;;;5101944;28;20044;-54
2023/04/08 10:07:03;;;;;;;14.63;12.75;;;12.60;99.90;;;;;;5105244;28;20059;-56
2023/04/08 10:09:29;;;;;;;14.27;12.00;;;12.70;99.90;;;;;;5109487;28;20048;-56
2023/04/08 10:11:55;;;;;;;;;;;12.70;99.90;;;;;;5113740;28;20100;-58
2023/04/08 10:14:21;;;;;;;14.10;12.57;;;12.70;99.90;;;;;;5097731;28;19920;-54
2023/04/08 10:16:47;;;;;;;14.40;13.00;;;12.70;99.90;;;;;;5093309;28;20089;-58
2023/04/08 10:19:38;;;;;;;14.45;12.52;;;12.60;99.90;;;;;;5105411;28;20031;-56
2023/04/08 10:22:23;;;;;;;14.60;12.52;;;12.60;99.90;;;;;;5113353;28;20105;-55
2023/04/08 10:25:14;;;;;;;24.55;13.98;;;12.60;99.90;;;;;;5109862;28;20047;-57
2023/04/08 10:27:42;;;;;;;16.52;14.55;;;12.60;99.90;;;;;;5109948;28;20516;-55
2023/04/08 10:30:26;;;;;;;16.23;14.43;;;12.60;99.90;;;;;;5111806;28;20130;-55
2023/04/08 10:33:00;;;;;;;15.85;13.75;;;12.50;99.90;;;;;;5105463;28;20401;-57
2023/04/08 10:35:34;;;;;;;19.58;15.55;;;12.50;99.90;;;;;;5104667;28;20043;-56
2023/04/08 10:38:00;;;;;;;16.35;14.65;;;12.40;99.90;;;;;;5107196;27;20493;-56
2023/04/08 10:40:26;;;;;;;19.42;15.23;;;12.30;99.90;;;;;;5092306;27;20051;-58
2023/04/08 10:42:58;;;;;;;17.13;15.38;;;12.30;99.90;;;;;;5098338;28;20035;-55
2023/04/08 10:45:24;;;;;;;17.25;15.02;;;12.30;99.90;;;;;;5092233;28;20062;-55
2023/04/08 10:47:50;;;;;;;18.33;16.33;;;12.20;99.90;;;;;;5092466;28;20036;-55
2023/04/08 10:50:18;;;;;;;18.23;16.25;;;12.30;99.90;;;;;;5109445;28;20050;-57
2023/04/08 10:52:48;;;;;;;17.75;15.45;;;12.40;99.90;;;;;;5098631;28;20039;-58
2023/04/08 10:55:15;;;;;;;19.33;16.48;;;12.40;99.90;;;;;;5108705;28;20039;-54
2023/04/08 10:57:41;;;;;;;18.48;16.38;;;12.30;99.90;;;;;;5110992;28;20058;-53
2023/04/08 11:00:10;;;;;;;22.05;16.08;;;12.20;99.90;;;;;;5109687;28;20039;-54
2023/04/08 11:02:39;;;;;;;17.70;15.73;;;12.00;99.90;;;;;;5111834;28;20036;-54
2023/04/08 11:05:05;;;;;;;19.83;17.33;;;11.90;99.90;;;;;;5105876;28;20502;-54
2023/04/08 11:07:31;;;;;;;19.27;17.33;;;11.80;99.90;;;;;;5110400;28;20042;-55
2023/04/08 11:10:02;;;;;;;20.05;17.15;;;11.80;99.90;;;;;;5097154;28;20040;-53
2023/04/08 11:12:28;;;;;;;18.20;16.00;;;11.70;99.90;;;;;;5091309;28;20506;-55
2023/04/08 11:14:54;;;;;;;19.35;17.23;;;11.60;99.90;;;;;;5107405;28;20097;-52
2023/04/08 11:17:21;;;;;;;19.02;16.17;;;11.50;99.90;;;;;;5112317;28;20505;-51
2023/04/08 11:19:47;;;;;;;24.30;16.85;;;11.40;99.90;;;;;;5108411;28;20461;-55
2023/04/08 11:22:13;;;;;;;21.00;16.73;;;11.40;99.90;;;;;;5112762;28;20075;-55
2023/04/08 11:24:39;;;;;;;22.17;16.87;;;11.40;99.90;;;;;;5105060;28;20077;-52
2023/04/08 11:27:07;;;;;;;19.27;15.48;;;11.50;99.90;;;;;;5111944;28;20433;-55
2023/04/08 11:29:33;;;;;;;20.15;14.48;;;11.60;99.90;;;;;;5101260;28;20036;-55
2023/04/08 11:31:59;;;;;;;19.48;15.85;;;11.60;99.90;;;;;;5091537;28;20036;-53
2023/04/08 11:34:25;;;;;;;16.50;12.75;;;11.60;99.90;;;;;;5099764;28;20048;-55
2023/04/08 11:36:51;;;;;;;17.27;13.77;;;11.60;99.90;;;;;;5091307;28;20440;-55
2023/04/08 11:39:16;;;;;;;15.88;13.43;;;11.60;99.90;;;;;;5097395;28;20035;-54
2023/04/08 11:41:42;;;;;;;17.17;14.20;;;11.70;99.90;;;;;;5108625;28;20028;-54
2023/04/08 11:44:08;;;;;;;17.23;14.10;;;11.70;99.90;;;;;;5101956;28;20039;-53
2023/04/08 11:46:34;;;;;;;18.15;13.10;;;11.80;99.90;;;;;;5111296;28;20067;-55
2023/04/08 11:49:02;;;;;;;14.63;13.02;;;11.90;99.90;;;;;;5109315;28;20040;-53
2023/04/08 11:51:27;;;;;;;17.23;12.52;;;11.90;99.90;;;;;;5102081;28;20345;-53
2023/04/08 11:53:53;;;;;;;15.13;13.10;;;11.80;99.90;;;;;;5110784;28;20446;-55
2023/04/08 11:56:21;;;;;;;18.75;14.73;;;11.80;99.90;;;;;;5110779;28;20040;-54
2023/04/08 11:58:47;;;;;;;17.30;13.52;;;11.80;99.90;;;;;;5105128;28;20048;-55
2023/04/08 12:01:13;;;;;;;19.20;13.00;;;11.70;99.90;;;;;;5109706;28;20046;-56
2023/04/08 12:03:52;;;;;;;17.73;14.40;;;11.70;99.90;;;;;;5111142;28;20044;-55
2023/04/08 12:06:17;;;;;;;17.13;15.02;;;11.70;99.90;;;;;;5109147;28;20039;-52
2023/04/08 12:08:43;;;;;;;19.43;16.23;;;11.70;99.90;;;;;;5107107;28;20043;-54
2023/04/08 12:11:10;;;;;;;19.52;15.27;;;11.70;99.90;;;;;;5102216;28;20390;-55
2023/04/08 12:13:35;;;;;;;19.30;15.55;;;11.60;99.90;;;;;;5093594;28;20039;-53
2023/04/08 12:16:01;;;;;;;20.30;13.63;;;11.60;99.90;;;;;;5098925;28;20405;-59
2023/04/08 12:18:26;;;;;;;19.42;15.10;;;11.60;99.90;;;;;;5095352;28;20072;-58
2023/04/08 12:20:53;;;;;;;22.33;14.67;;;11.50;99.90;;;;;;5098023;28;20043;-58
2023/04/08 12:23:19;;;;;;;20.92;15.45;;;11.60;99.90;;;;;;5110192;28;20282;-56
2023/04/08 12:25:44;;;;;;;18.73;14.30;;;11.60;99.90;;;;;;5100739;28;20038;-58
2023/04/08 12:28:11;;;;;;;28.15;16.02;;;11.60;99.90;;;;;;5089599;28;20060;-55
2023/04/08 12:30:37;;;;;;;20.10;15.55;;;11.60;99.90;;;;;;5092173;28;20032;-56
2023/04/08 12:33:02;;;;;;;23.40;14.90;;;11.50;99.90;;;;;;5090221;28;20040;-56
2023/04/08 12:35:28;;;;;;;21.17;14.82;;;11.50;99.90;;;;;;5095485;28;20039;-55
2023/04/08 12:37:53;;;;;;;21.02;16.33;;;11.50;99.90;;;;;;5089252;28;20131;-55